Time;durP1;ratioP1;P1;durP2;ratioP2;P2;SDS_P1;SDS_P2;PMS_P1;PMS_P2;Temp;Humidity;BMP_temperature;BMP_pressure;BME280_temperature;BME280_humidity;BME280_pressure;Samples;Min_cycle;Max_cycle;Signal;HPM_P1;HPM_P2
2022/09/19 00:01:45;;;;;;;57.67;4.82;;;;;;;12.64;79.10;101783.25;4980938;28;20046;-41
2022/09/19 00:04:19;;;;;;;36.00;2.92;;;;;;;12.61;80.54;101783.56;4979263;28;20234;-40
2022/09/19 00:06:46;;;;;;;36.83;2.53;;;;;;;12.52;81.18;101791.69;4979184;28;20117;-41
2022/09/19 00:09:15;;;;;;;36.13;3.80;;;;;;;12.47;80.49;101785.97;4979923;28;20114;-40
2022/09/19 00:11:42;;;;;;;52.88;3.85;;;;;;;12.43;80.36;101792.72;4978995;28;20049;-40
2022/09/19 00:14:09;;;;;;;34.90;3.13;;;;;;;12.34;80.92;101791.03;4979721;28;20022;-43
2022/09/19 00:16:41;;;;;;;32.40;3.58;;;;;;;12.26;80.91;101791.03;4986024;28;20061;-40
2022/09/19 00:19:10;;;;;;;37.20;2.80;;;;;;;12.23;80.30;101791.38;4985907;28;20039;-41
2022/09/19 00:21:38;;;;;;;36.50;2.63;;;;;;;12.24;78.72;101795.75;4984950;28;20482;-41
2022/09/19 00:26:50;;;;;;;30.95;2.90;;;;;;;12.26;77.47;101796.44;4985698;28;20049;-41
2022/09/19 00:29:16;;;;;;;47.70;2.72;;;;;;;12.24;77.13;101795.75;4985984;28;20034;-41
2022/09/19 00:31:45;;;;;;;25.75;2.97;;;;;;;12.19;77.67;101792.72;4999927;28;20077;-41
2022/09/19 00:34:13;;;;;;;31.95;3.05;;;;;;;12.16;76.93;101795.78;4985518;28;20031;-42
2022/09/19 00:36:40;;;;;;;34.92;3.53;;;;;;;12.12;76.17;101797.97;4983052;28;20027;-41
2022/09/19 00:39:06;;;;;;;31.88;2.75;;;;;;;12.10;75.10;101796.47;4984894;28;20018;-41
2022/09/19 00:41:32;;;;;;;31.17;2.80;;;;;;;12.05;74.34;101799.66;4984396;28;20042;-41
2022/09/19 00:44:04;;;;;;;30.50;2.00;;;;;;;12.06;73.30;101801.34;4985189;28;20034;-41
2022/09/19 00:46:32;;;;;;;32.30;3.88;;;;;;;12.05;73.10;101802.34;4984776;28;20035;-41
2022/09/19 00:48:59;;;;;;;25.65;3.05;;;;;;;12.00;73.67;101800.16;4985350;28;20055;-41
2022/09/19 00:51:31;;;;;;;32.58;2.20;;;;;;;12.05;72.81;101794.25;4984958;28;20046;-41
2022/09/19 00:53:58;;;;;;;25.48;2.53;;;;;;;12.10;72.32;101802.69;4983323;28;20458;-41
2022/09/19 00:56:23;;;;;;;41.73;2.17;;;;;;;12.12;72.24;101799.84;4984120;28;20077;-41
2022/09/19 00:58:50;;;;;;;31.23;2.53;;;;;;;12.14;72.50;101803.19;4985207;28;20061;-41
2022/09/19 01:01:15;;;;;;;29.73;2.22;;;;;;;12.20;71.95;101805.22;4983759;28;20085;-41
2022/09/19 01:03:41;;;;;;;37.10;3.45;;;;;;;12.23;71.62;101797.63;4983354;28;20031;-40
2022/09/19 01:06:39;;;;;;;40.42;2.75;;;;;;;12.24;70.55;101809.25;4985242;28;20027;-41
2022/09/19 01:09:05;;;;;;;17.77;2.25;;;;;;;12.29;70.14;101801.50;4983440;28;20023;-41
2022/09/19 01:11:46;;;;;;;18.05;2.25;;;;;;;12.27;69.74;101799.00;4985655;28;20045;-41
2022/09/19 01:14:25;;;;;;;26.67;1.80;;;;;;;12.24;69.60;101814.66;4984650;28;20104;-42
2022/09/19 01:16:54;;;;;;;25.27;2.95;;;;;;;12.20;69.43;101807.94;4983925;28;20398;-41
2022/09/19 01:19:38;;;;;;;23.42;2.13;;;;;;;12.19;69.70;101806.22;4984128;28;20037;-42
2022/09/19 01:22:27;;;;;;;23.73;2.63;;;;;;;12.11;69.72;101811.63;4981307;28;20027;-42
2022/09/19 01:24:58;;;;;;;22.77;2.28;;;;;;;12.11;68.42;101814.31;4966214;28;20117;-41
2022/09/19 01:28:02;;;;;;;18.92;1.55;;;;;;;12.07;68.64;101811.13;4983405;28;20035;-41
2022/09/19 01:30:28;;;;;;;33.88;2.38;;;;;;;12.04;68.70;101817.69;4976541;28;20030;-41
2022/09/19 01:33:17;;;;;;;31.55;2.70;;;;;;;12.10;68.63;101813.47;4981803;28;20479;-41
2022/09/19 01:35:45;;;;;;;32.60;2.22;;;;;;;12.10;68.89;101823.44;4982724;28;20034;-41
2022/09/19 01:38:15;;;;;;;42.22;2.92;;;;;;;12.07;69.82;101817.38;4981372;28;20034;-40
2022/09/19 01:40:41;;;;;;;23.83;2.63;;;;;;;12.11;70.80;101819.72;4983828;28;20034;-41
2022/09/19 01:43:12;;;;;;;22.95;2.22;;;;;;;12.17;70.98;101813.66;4981632;28;20513;-41
2022/09/19 01:45:38;;;;;;;29.60;2.38;;;;;;;12.23;71.35;101826.47;4983292;28;20027;-41
2022/09/19 01:48:24;;;;;;;28.23;2.10;;;;;;;12.28;71.78;101826.81;4983040;28;20031;-42
2022/09/19 01:51:13;;;;;;;22.60;2.28;;;;;;;12.32;71.92;101822.75;4963974;28;20027;-41
2022/09/19 01:54:04;;;;;;;24.60;2.67;;;;;;;12.37;71.53;101817.69;4977312;28;20355;-40
2022/09/19 01:56:56;;;;;;;29.55;2.72;;;;;;;12.29;71.51;101821.22;4981040;28;20034;-41
2022/09/19 01:59:30;;;;;;;18.65;1.70;;;;;;;12.28;70.91;101826.81;4972628;28;20389;-40
2022/09/19 02:02:07;;;;;;;23.77;2.03;;;;;;;12.23;70.66;101830.00;4982299;28;20030;-41
2022/09/19 02:04:41;;;;;;;20.27;1.92;;;;;;;12.22;69.89;101828.34;4981707;28;20081;-42
2022/09/19 02:07:13;;;;;;;23.92;2.03;;;;;;;12.26;69.76;101818.88;4982430;28;20069;-41
2022/09/19 02:09:48;;;;;;;28.05;1.90;;;;;;;12.26;68.79;101834.22;4977826;28;20038;-41
2022/09/19 02:12:16;;;;;;;26.25;2.10;;;;;;;12.27;68.20;101833.25;4980499;28;20643;-41
2022/09/19 02:14:47;;;;;;;26.30;1.95;;;;;;;12.28;67.93;101824.94;4981972;28;20389;-42
2022/09/19 02:17:14;;;;;;;28.80;2.08;;;;;;;12.24;68.04;101826.31;4980791;28;20131;-41
2022/09/19 02:19:43;;;;;;;23.17;1.80;;;;;;;12.29;66.86;101829.31;4980291;28;20030;-41
2022/09/19 02:22:20;;;;;;;22.27;2.30;;;;;;;12.32;66.96;101832.72;4973961;28;20074;-41
2022/09/19 02:24:47;;;;;;;25.73;2.17;;;;;;;12.40;66.53;101825.47;4978804;28;20050;-41
2022/09/19 02:27:22;;;;;;;13.00;1.75;;;;;;;12.41;67.16;101832.53;4980703;28;20037;-42
2022/09/19 02:29:54;;;;;;;35.35;2.80;;;;;;;12.41;67.66;101832.53;4979559;28;20066;-41
2022/09/19 02:32:21;;;;;;;28.88;2.17;;;;;;;12.35;68.05;101829.66;4979795;28;20029;-43
2022/09/19 02:34:48;;;;;;;28.58;1.77;;;;;;;12.32;68.14;101830.84;4980675;28;20429;-42
2022/09/19 02:37:46;;;;;;;23.20;1.98;;;;;;;12.35;68.21;101835.94;4979666;28;20086;-41
2022/09/19 02:40:39;;;;;;;17.38;1.80;;;;;;;12.29;68.63;101836.59;4980078;28;20097;-41
2022/09/19 02:43:26;;;;;;;38.28;3.35;;;;;;;12.24;68.92;101836.25;4978369;28;20508;-41
2022/09/19 02:45:55;;;;;;;36.22;2.28;;;;;;;12.19;69.58;101835.91;4975165;28;20422;-42
2022/09/19 02:48:35;;;;;;;27.38;2.55;;;;;;;12.17;69.49;101846.06;4980517;28;20524;-41
2022/09/19 02:51:26;;;;;;;27.38;2.42;;;;;;;12.10;70.11;101826.13;4981364;28;20035;-41
2022/09/19 02:54:04;;;;;;;16.67;1.85;;;;;;;12.07;69.67;101830.84;4979661;28;20397;-41
2022/09/19 02:56:34;;;;;;;19.20;1.83;;;;;;;12.09;69.14;101830.69;4979436;28;20031;-41
2022/09/19 02:59:09;;;;;;;32.05;2.63;;;;;;;12.16;68.69;101834.38;4979403;28;20455;-42
2022/09/19 03:01:37;;;;;;;32.83;2.45;;;;;;;12.13;68.60;101828.50;4979594;28;20034;-42
2022/09/19 03:04:18;;;;;;;21.67;1.67;;;;;;;12.16;68.56;101829.00;4979753;28;20118;-42
2022/09/19 03:07:12;;;;;;;22.95;1.95;;;;;;;12.13;68.35;101826.63;4979982;28;20474;-42
2022/09/19 03:09:45;;;;;;;16.35;2.50;;;;;;;12.13;67.98;101831.19;4981165;28;20054;-41
2022/09/19 03:12:28;;;;;;;18.13;2.70;;;;;;;12.11;67.59;101830.50;4978939;28;20027;-42
2022/09/19 03:14:58;;;;;;;22.35;2.22;;;;;;;12.05;67.57;101827.47;4964138;28;20027;-42
2022/09/19 03:17:28;;;;;;;17.92;1.88;;;;;;;12.13;66.40;101829.34;4980900;28;20108;-42
2022/09/19 03:19:54;;;;;;;13.77;1.40;;;;;;;12.07;66.45;101825.47;4981710;28;20104;-42
2022/09/19 03:22:19;;;;;;;27.83;1.92;;;;;;;12.03;67.03;101831.34;4980232;28;20149;-43
2022/09/19 03:24:44;;;;;;;18.02;1.70;;;;;;;12.01;66.59;101825.31;4981063;28;20031;-42
2022/09/19 03:27:10;;;;;;;24.02;2.13;;;;;;;12.00;66.54;101829.81;4979587;28;20347;-41
2022/09/19 03:29:36;;;;;;;17.73;1.73;;;;;;;11.97;66.49;101832.03;4980835;28;20049;-42
2022/09/19 03:32:02;;;;;;;16.35;2.28;;;;;;;11.97;65.96;101835.56;4980404;28;20030;-42
2022/09/19 03:34:32;;;;;;;19.02;1.42;;;;;;;11.95;65.86;101837.56;4980261;28;20133;-42
2022/09/19 03:36:58;;;;;;;17.75;1.65;;;;;;;11.96;65.56;101833.88;4980273;28;20265;-41
2022/09/19 03:39:24;;;;;;;17.75;1.65;;;;;;;11.95;65.56;101834.03;4994202;28;20033;-40
2022/09/19 03:41:50;;;;;;;24.00;2.95;;;;;;;11.91;64.64;101836.25;4980163;28;20441;-42
2022/09/19 03:44:19;;;;;;;26.33;3.22;;;;;;;11.93;64.78;101847.72;4980130;28;20129;-42
2022/09/19 03:46:46;;;;;;;15.95;1.73;;;;;;;11.93;65.29;101850.41;4979133;28;20077;-42
2022/09/19 03:49:11;;;;;;;20.67;1.95;;;;;;;11.94;65.77;101846.69;4984330;28;20675;-42
2022/09/19 03:51:37;;;;;;;16.40;1.52;;;;;;;11.92;66.37;101837.91;4979399;28;20039;-42
2022/09/19 03:54:02;;;;;;;18.23;1.52;;;;;;;11.95;66.47;101837.56;4978608;28;20090;-42
2022/09/19 03:56:28;;;;;;;19.77;1.83;;;;;;;11.99;65.75;101844.34;4979422;28;20031;-43
2022/09/19 03:58:53;;;;;;;24.02;2.08;;;;;;;12.02;65.84;101849.41;4981121;28;20086;-42
2022/09/19 04:01:19;;;;;;;23.63;3.08;;;;;;;12.07;65.25;101851.59;4988320;28;20065;-42
2022/09/19 04:03:44;;;;;;;15.00;1.45;;;;;;;12.00;66.14;101848.72;4981523;28;20045;-43
2022/09/19 04:06:10;;;;;;;20.67;1.52;;;;;;;11.94;65.97;101857.47;4979331;28;20027;-42
2022/09/19 04:08:36;;;;;;;15.57;1.50;;;;;;;11.96;66.17;101860.88;4983029;28;20477;-43
2022/09/19 04:11:01;;;;;;;14.05;1.45;;;;;;;11.94;66.35;101857.47;4993352;28;20033;-43
2022/09/19 04:13:28;;;;;;;13.45;1.40;;;;;;;11.96;66.00;101863.56;4981145;28;20027;-43
2022/09/19 04:15:54;;;;;;;23.38;1.88;;;;;;;11.95;66.14;101864.56;4981478;28;20131;-43
2022/09/19 04:18:19;;;;;;;14.93;1.75;;;;;;;11.90;66.24;101861.53;4978588;28;20034;-42
2022/09/19 04:20:46;;;;;;;17.58;1.63;;;;;;;11.91;65.95;101857.81;4980764;28;20120;-42
2022/09/19 04:23:16;;;;;;;21.77;2.13;;;;;;;11.85;66.87;101859.28;4969354;28;20038;-43
2022/09/19 04:25:42;;;;;;;25.15;1.70;;;;;;;11.81;67.26;101857.09;4969921;28;20038;-43
2022/09/19 04:28:11;;;;;;;19.77;1.88;;;;;;;11.82;67.02;101864.16;4980397;28;20026;-42
2022/09/19 04:30:38;;;;;;;12.43;1.27;;;;;;;11.82;67.12;101856.06;4979995;28;20034;-42
2022/09/19 04:33:05;;;;;;;14.68;1.30;;;;;;;11.85;66.48;101866.56;4979875;28;20093;-42
2022/09/19 04:35:34;;;;;;;28.67;2.08;;;;;;;11.84;66.49;101865.69;4978353;28;20046;-43
2022/09/19 04:38:07;;;;;;;24.40;1.80;;;;;;;11.81;66.71;101870.56;4972726;28;20104;-43
2022/09/19 04:40:44;;;;;;;19.27;2.83;;;;;;;11.85;66.25;101874.66;4979723;28;20030;-43
2022/09/19 04:43:11;;;;;;;18.77;2.35;;;;;;;11.84;66.10;101878.34;4981328;28;20026;-41
2022/09/19 04:45:39;;;;;;;19.40;1.92;;;;;;;11.82;65.87;101873.13;4979934;28;20062;-43
2022/09/19 04:48:05;;;;;;;16.20;1.60;;;;;;;11.91;66.09;101871.31;4979492;28;20039;-42
2022/09/19 04:50:34;;;;;;;25.08;1.98;;;;;;;11.98;66.13;101864.25;4980424;28;20023;-42
2022/09/19 04:53:00;;;;;;;12.70;1.52;;;;;;;11.99;66.42;101874.00;4978708;28;20030;-42
2022/09/19 04:55:27;;;;;;;25.83;3.28;;;;;;;11.96;66.88;101877.06;4992591;28;20023;-42
2022/09/19 04:57:52;;;;;;;17.53;1.53;;;;;;;11.95;67.21;101878.03;4980036;28;20035;-43
2022/09/19 05:00:36;;;;;;;18.05;1.85;;;;;;;12.04;67.16;101879.75;4982172;28;20037;-42
2022/09/19 05:03:06;;;;;;;27.52;2.60;;;;;;;12.13;67.12;101877.06;4964183;28;20035;-42
2022/09/19 05:05:31;;;;;;;20.35;1.50;;;;;;;12.12;67.69;101886.19;4970211;28;20478;-42
2022/09/19 05:07:57;;;;;;;26.02;2.20;;;;;;;12.14;67.85;101876.91;4984369;28;20153;-43
2022/09/19 05:10:23;;;;;;;20.73;1.83;;;;;;;12.08;68.37;101881.13;4981705;28;20023;-42
2022/09/19 05:12:48;;;;;;;27.30;2.40;;;;;;;12.10;67.95;101888.19;4981159;28;21241;-42
2022/09/19 05:15:13;;;;;;;20.65;2.25;;;;;;;12.08;68.07;101891.94;4980474;28;20038;-42
2022/09/19 05:17:38;;;;;;;23.13;2.58;;;;;;;12.07;68.15;101892.91;4983423;28;20037;-41
2022/09/19 05:20:04;;;;;;;25.83;2.13;;;;;;;12.08;68.59;101896.44;4982714;28;20027;-43
2022/09/19 05:22:30;;;;;;;31.67;1.98;;;;;;;12.12;68.65;101891.59;4977236;28;20022;-42
2022/09/19 05:24:55;;;;;;;17.75;1.83;;;;;;;12.18;68.48;101899.00;4985799;28;20059;-42
2022/09/19 05:27:21;;;;;;;22.33;2.33;;;;;;;12.21;68.34;101902.19;4963896;28;20023;-42
2022/09/19 05:29:46;;;;;;;24.23;2.67;;;;;;;12.26;68.17;101891.75;4979738;28;20030;-42
2022/09/19 05:32:11;;;;;;;29.02;1.95;;;;;;;12.35;67.67;101891.75;4980133;28;20042;-41
2022/09/19 05:34:37;;;;;;;23.25;2.60;;;;;;;12.40;66.89;101901.06;4977552;28;20082;-42
2022/09/19 05:37:02;;;;;;;22.60;2.15;;;;;;;12.42;67.05;101899.00;4980608;28;20478;-42
2022/09/19 05:39:27;;;;;;;19.55;1.58;;;;;;;12.52;65.98;101901.56;4981958;28;20603;-42
2022/09/19 05:41:53;;;;;;;14.77;1.35;;;;;;;12.56;65.91;101904.75;4981827;28;20034;-42
2022/09/19 05:44:18;;;;;;;20.27;2.38;;;;;;;12.60;65.74;101917.75;4995790;28;20027;-41
2022/09/19 05:46:44;;;;;;;23.58;1.88;;;;;;;12.67;65.48;101912.53;4981503;28;20441;-42
2022/09/19 05:49:09;;;;;;;22.77;1.92;;;;;;;12.77;65.24;101924.00;4985038;28;20113;-42
2022/09/19 05:51:35;;;;;;;26.70;1.85;;;;;;;12.80;65.50;101918.25;4983401;28;20031;-42
2022/09/19 05:54:00;;;;;;;30.88;2.42;;;;;;;12.84;65.42;101919.59;4982798;28;20034;-42
2022/09/19 05:56:26;;;;;;;17.05;1.50;;;;;;;12.82;65.68;101916.25;4983422;28;20019;-43
2022/09/19 05:58:55;;;;;;;12.18;1.63;;;;;;;12.87;65.31;101915.72;4983949;28;20026;-43
2022/09/19 06:01:20;;;;;;;25.50;1.88;;;;;;;12.92;65.37;101925.00;4983612;28;20038;-43
2022/09/19 06:03:46;;;;;;;30.35;2.05;;;;;;;12.96;64.48;101920.09;4982191;28;20022;-43
2022/09/19 06:06:13;;;;;;;16.42;1.50;;;;;;;13.06;64.40;101917.19;4997899;28;20027;-42
2022/09/19 06:08:40;;;;;;;21.27;2.28;;;;;;;13.09;64.13;101922.28;4983130;28;20023;-43
2022/09/19 06:11:06;;;;;;;18.75;1.65;;;;;;;13.17;63.59;101927.66;4983424;28;20089;-41
2022/09/19 06:16:17;;;;;;;25.00;1.90;;;;;;;13.32;62.34;101928.69;4982561;28;20074;-42
2022/09/19 06:18:43;;;;;;;22.55;2.67;;;;;;;13.41;62.13;101924.06;4981308;28;20026;-41
2022/09/19 06:21:08;;;;;;;17.23;2.10;;;;;;;13.48;61.92;101935.91;4982193;28;20026;-41
2022/09/19 06:23:34;;;;;;;16.00;1.60;;;;;;;13.50;61.74;101941.94;4982070;28;20026;-41
2022/09/19 06:25:59;;;;;;;15.02;1.85;;;;;;;13.54;61.66;101932.47;4982199;28;20089;-41
2022/09/19 06:28:25;;;;;;;12.75;1.63;;;;;;;13.72;60.99;101944.94;4982189;28;20039;-42
2022/09/19 06:30:50;;;;;;;25.52;2.13;;;;;;;13.77;60.83;101943.38;4982980;28;20035;-42
2022/09/19 06:33:15;;;;;;;14.93;1.80;;;;;;;13.93;59.75;101941.59;4966882;28;20038;-41
2022/09/19 06:35:41;;;;;;;21.98;1.95;;;;;;;13.99;60.17;101940.91;4963653;28;20506;-41
2022/09/19 06:38:07;;;;;;;16.20;2.08;;;;;;;14.15;58.91;101950.78;4963675;28;20042;-42
2022/09/19 06:40:34;;;;;;;16.58;1.70;;;;;;;14.21;59.55;101944.66;4979697;28;20023;-42
2022/09/19 06:43:01;;;;;;;21.33;1.55;;;;;;;14.28;58.75;101946.47;4964492;28;20027;-41
2022/09/19 06:45:31;;;;;;;17.92;1.98;;;;;;;14.39;58.36;101945.22;4962684;28;20764;-42
2022/09/19 06:48:00;;;;;;;16.77;1.83;;;;;;;14.50;56.79;101955.63;4964552;28;20027;-41
2022/09/19 06:50:26;;;;;;;25.05;3.15;;;;;;;14.55;57.25;101955.09;4962923;28;20038;-42
2022/09/19 06:52:51;;;;;;;17.88;1.55;;;;;;;14.57;57.41;101955.78;4964213;28;20023;-42
2022/09/19 06:55:18;;;;;;;21.52;2.25;;;;;;;14.97;57.09;101956.44;4963616;28;20028;-41
2022/09/19 06:57:43;;;;;;;22.10;2.67;;;;;;;15.23;56.16;101955.19;4963622;28;20027;-41
2022/09/19 07:00:09;;;;;;;21.92;1.73;;;;;;;16.05;53.82;101965.09;4962831;29;20606;-42
2022/09/19 07:02:35;;;;;;;17.55;1.73;;;;;;;16.40;52.42;101964.25;4964379;28;20045;-41
2022/09/19 07:05:00;;;;;;;18.10;1.67;;;;;;;16.55;51.77;101971.47;4963667;28;20023;-43
2022/09/19 07:07:26;;;;;;;24.48;2.00;;;;;;;16.48;51.60;101976.00;4963293;28;20071;-41
2022/09/19 07:09:51;;;;;;;11.70;1.45;;;;;;;16.23;52.01;101969.06;4963008;28;20201;-42
2022/09/19 07:12:16;;;;;;;22.17;2.38;;;;;;;15.87;53.80;101977.19;4964512;28;20033;-42
2022/09/19 07:14:42;;;;;;;17.52;1.50;;;;;;;15.66;55.35;101972.50;4964304;28;20035;-42
2022/09/19 07:17:07;;;;;;;18.38;2.33;;;;;;;15.61;55.91;101974.09;4966098;28;20090;-43
2022/09/19 07:19:32;;;;;;;20.02;1.95;;;;;;;15.44;56.77;101973.44;4966574;28;20056;-41
2022/09/19 07:21:58;;;;;;;14.77;2.00;;;;;;;15.35;57.04;101978.13;4965992;28;20493;-41
2022/09/19 07:24:24;;;;;;;21.33;2.45;;;;;;;15.53;57.60;101983.16;4964899;28;20031;-42
2022/09/19 07:26:49;;;;;;;27.70;2.45;;;;;;;15.67;57.93;101985.06;4964750;28;20467;-43
2022/09/19 07:29:14;;;;;;;17.95;1.70;;;;;;;16.72;57.52;101982.94;4965954;28;20054;-42
2022/09/19 07:31:40;;;;;;;16.10;1.85;;;;;;;17.93;51.96;101994.50;4967245;28;20042;-41
2022/09/19 07:34:05;;;;;;;10.57;2.25;;;;;;;18.48;50.46;101989.88;4963564;29;20098;-43
2022/09/19 07:36:30;;;;;;;20.65;2.13;;;;;;;18.42;50.54;101996.16;4964898;28;20478;-42
2022/09/19 07:38:56;;;;;;;18.77;2.08;;;;;;;18.80;49.93;101992.88;4963787;29;20463;-42
2022/09/19 07:41:21;;;;;;;14.57;2.05;;;;;;;18.79;49.80;101991.22;4964899;28;20110;-42
2022/09/19 07:43:49;;;;;;;18.15;1.95;;;;;;;18.26;49.31;101993.81;4964099;28;20062;-42
2022/09/19 07:46:17;;;;;;;15.07;2.10;;;;;;;17.67;51.27;101998.75;4964522;28;20075;-42
2022/09/19 07:48:43;;;;;;;31.35;2.65;;;;;;;17.22;53.10;101994.69;4962922;28;20058;-42
2022/09/19 07:51:09;;;;;;;14.98;1.80;;;;;;;17.21;52.59;101996.56;4964125;28;20023;-41
2022/09/19 07:53:34;;;;;;;14.32;1.55;;;;;;;18.26;49.57;101999.25;4966652;28;20031;-42
2022/09/19 07:56:00;;;;;;;20.10;1.77;;;;;;;19.51;45.50;101994.97;4966807;28;20019;-42
2022/09/19 07:58:26;;;;;;;11.93;1.30;;;;;;;20.32;43.68;101999.91;4964727;29;20035;-43
2022/09/19 08:00:52;;;;;;;15.23;1.42;;;;;;;21.02;42.16;102007.28;4967530;28;20384;-42
2022/09/19 08:03:18;;;;;;;13.57;1.70;;;;;;;21.82;41.01;102009.25;4967150;28;20038;-40
2022/09/19 08:05:47;;;;;;;15.68;1.90;;;;;;;22.25;40.36;102008.31;4967489;28;20038;-42
2022/09/19 08:08:15;;;;;;;11.75;1.65;;;;;;;22.84;38.87;102014.84;4967206;28;20090;-41
2022/09/19 08:10:41;;;;;;;14.68;1.80;;;;;;;23.29;37.25;102017.06;4967847;28;20063;-42
2022/09/19 08:13:07;;;;;;;12.68;1.88;;;;;;;24.05;35.26;102022.63;4965718;28;20114;-38
2022/09/19 08:15:34;;;;;;;15.65;2.13;;;;;;;24.22;35.99;102025.44;4957933;29;20035;-40
2022/09/19 08:18:02;;;;;;;22.05;2.38;;;;;;;24.65;34.19;102019.41;4959479;28;20114;-38
2022/09/19 08:20:31;;;;;;;12.82;1.50;;;;;;;23.86;36.25;102030.22;4956468;29;20036;-39
2022/09/19 08:23:22;;;;;;;10.05;1.73;;;;;;;24.38;34.71;102032.06;4957988;28;20032;-39
2022/09/19 08:25:51;;;;;;;15.93;1.92;;;;;;;24.15;35.13;102035.75;4956099;28;20051;-38
2022/09/19 08:28:17;;;;;;;11.23;1.60;;;;;;;23.36;36.82;102039.78;4957925;28;20039;-38
2022/09/19 08:30:43;;;;;;;15.25;2.08;;;;;;;23.62;36.67;102041.19;4957063;28;20027;-39
2022/09/19 08:33:09;;;;;;;10.77;1.77;;;;;;;24.26;33.96;102041.22;4958189;28;20042;-38
2022/09/19 08:35:37;;;;;;;14.97;2.00;;;;;;;24.03;35.04;102044.03;4957365;28;20023;-37
2022/09/19 08:38:04;;;;;;;10.48;1.55;;;;;;;24.17;34.43;102050.94;4962497;28;20020;-37
2022/09/19 08:40:43;;;;;;;10.52;2.08;;;;;;;24.42;33.83;102053.34;4961696;28;20023;-38
2022/09/19 08:43:18;;;;;;;15.65;1.85;;;;;;;24.26;34.35;102057.72;4962258;28;20031;-37
2022/09/19 08:45:59;;;;;;;13.07;1.90;;;;;;;23.19;36.18;102055.28;4962148;28;20038;-38
2022/09/19 08:48:47;;;;;;;12.23;1.63;;;;;;;22.25;37.39;102054.94;4973693;28;20117;-38
2022/09/19 08:51:23;;;;;;;12.57;1.73;;;;;;;22.55;36.42;102060.44;4966646;28;20229;-38
2022/09/19 08:53:53;;;;;;;9.85;1.95;;;;;;;22.33;38.47;102063.69;4978378;28;20027;-39
2022/09/19 08:56:19;;;;;;;13.35;1.90;;;;;;;22.06;37.66;102063.13;4976909;28;20041;-38
2022/09/19 08:58:49;;;;;;;15.32;1.90;;;;;;;21.36;39.66;102059.84;4977361;28;20023;-39
2022/09/19 09:01:16;;;;;;;17.05;2.05;;;;;;;20.84;40.76;102057.28;4977969;28;20387;-38
2022/09/19 09:03:47;;;;;;;17.10;1.90;;;;;;;20.82;41.91;102057.50;4994259;28;20026;-38
2022/09/19 09:06:18;;;;;;;21.88;1.90;;;;;;;20.63;42.33;102061.22;4984246;28;20540;-38
2022/09/19 09:09:29;;;;;;;10.57;1.35;;;;;;;22.04;39.13;102059.81;4978160;28;20397;-38
2022/09/19 09:12:14;;;;;;;14.85;1.88;;;;;;;22.64;36.92;102063.69;4976458;28;20043;-38
2022/09/19 09:14:40;;;;;;;12.45;1.58;;;;;;;22.77;37.58;102055.25;4979647;28;20442;-38
2022/09/19 09:17:23;;;;;;;10.63;1.52;;;;;;;22.29;37.68;102067.13;4980246;28;20030;-38
2022/09/19 09:20:00;;;;;;;11.85;1.75;;;;;;;21.49;39.25;102070.72;4978921;28;20034;-39
2022/09/19 09:22:30;;;;;;;10.32;1.77;;;;;;;20.92;41.23;102067.97;4979564;28;20453;-38
2022/09/19 09:25:24;;;;;;;13.63;1.88;;;;;;;20.22;41.73;102065.19;4977278;28;20031;-38
2022/09/19 09:28:07;;;;;;;9.45;1.63;;;;;;;19.91;41.90;102061.28;4959974;28;20438;-38
2022/09/19 09:30:36;;;;;;;9.10;1.52;;;;;;;20.05;40.73;102067.53;4971457;28;20405;-38
2022/09/19 09:33:28;;;;;;;7.10;1.58;;;;;;;20.13;41.20;102061.00;4978590;28;20433;-39
2022/09/19 09:36:13;;;;;;;10.18;1.77;;;;;;;20.19;41.24;102068.31;4979139;28;20035;-38
2022/09/19 09:38:49;;;;;;;19.70;2.03;;;;;;;20.26;41.02;102063.69;4978618;28;20543;-38
2022/09/19 09:44:17;;;;;;;9.90;1.55;;;;;;;20.01;42.44;102057.25;4979944;28;20512;-39
2022/09/19 09:47:19;;;;;;;11.15;1.58;;;;;;;19.84;42.20;102065.09;4978253;28;20089;-38
2022/09/19 09:49:46;;;;;;;9.07;1.77;;;;;;;19.44;43.79;102073.31;4968430;28;20182;-38
2022/09/19 09:52:33;;;;;;;10.70;1.50;;;;;;;19.17;43.19;102064.25;4978982;28;20026;-38
2022/09/19 09:57:54;;;;;;;9.15;1.52;;;;;;;18.39;45.05;102072.88;4979159;28;20077;-38
2022/09/19 10:03:38;;;;;;;13.15;1.80;;;;;;;18.03;45.33;102071.25;4973067;28;20077;-37
2022/09/19 10:06:07;;;;;;;13.85;1.58;;;;;;;18.27;46.09;102069.88;4977834;28;20103;-38
2022/09/19 10:08:44;;;;;;;9.55;1.45;;;;;;;18.34;45.97;102086.28;4980258;28;20042;-38
2022/09/19 10:11:13;;;;;;;14.75;1.83;;;;;;;18.19;45.69;102068.22;4972414;28;20509;-38
2022/09/19 10:13:58;;;;;;;8.00;1.23;;;;;;;18.06;44.42;102073.59;4958907;28;20039;-38
2022/09/19 10:16:23;;;;;;;15.75;1.92;;;;;;;17.85;47.09;102081.81;4960377;28;20038;-38
2022/09/19 10:18:52;;;;;;;8.63;1.30;;;;;;;17.83;44.49;102078.47;4978751;28;20022;-38
2022/09/19 10:21:18;;;;;;;13.75;1.25;;;;;;;17.91;44.91;102070.16;4976460;28;20502;-39
2022/09/19 10:23:45;;;;;;;8.85;1.50;;;;;;;17.98;44.99;102074.59;4977834;28;20038;-38
2022/09/19 10:26:16;;;;;;;14.48;1.73;;;;;;;18.07;44.77;102074.44;4977555;28;20042;-38
2022/09/19 10:28:58;;;;;;;5.85;1.45;;;;;;;18.07;44.65;102077.97;4976761;28;20098;-39
2022/09/19 10:31:34;;;;;;;7.47;1.30;;;;;;;18.03;44.96;102084.88;4977852;28;20043;-38
2022/09/19 10:34:04;;;;;;;10.95;1.40;;;;;;;18.14;45.01;102081.59;4974586;28;20023;-38
2022/09/19 10:36:33;;;;;;;11.52;1.38;;;;;;;18.14;45.63;102078.88;4977535;28;20037;-37
2022/09/19 10:39:00;;;;;;;7.68;1.30;;;;;;;18.29;45.81;102066.97;4977536;28;20386;-38
2022/09/19 10:41:28;;;;;;;11.35;1.15;;;;;;;18.33;45.44;102080.00;4978315;28;20505;-39
2022/09/19 10:43:54;;;;;;;;;;;;;;;18.30;46.20;102085.84;4975184;28;20424;-39
2022/09/19 10:46:36;;;;;;;13.25;1.60;;;;;;;18.30;45.99;102079.53;4974394;28;19914;-37
2022/09/19 10:49:05;;;;;;;10.43;1.20;;;;;;;18.17;45.75;102086.63;4976515;28;20299;-37
2022/09/19 10:51:36;;;;;;;11.65;1.38;;;;;;;18.18;46.31;102082.84;4975776;28;20023;-38
2022/09/19 10:54:11;;;;;;;14.25;1.48;;;;;;;18.03;47.03;102079.41;4974164;28;20041;-36
2022/09/19 10:56:39;;;;;;;12.27;1.85;;;;;;;17.96;47.11;102078.56;4975110;28;20035;-37
2022/09/19 10:59:13;;;;;;;11.20;1.30;;;;;;;18.14;47.54;102081.59;4976268;28;20515;-37
2022/09/19 11:01:39;;;;;;;10.32;1.67;;;;;;;18.32;46.05;102082.91;4976704;28;20086;-38
2022/09/19 11:04:22;;;;;;;10.02;1.30;;;;;;;18.40;45.98;102071.81;4976037;28;20043;-37
2022/09/19 11:07:02;;;;;;;6.22;1.45;;;;;;;18.51;46.76;102082.16;4976105;28;20603;-37
2022/09/19 11:09:37;;;;;;;15.60;1.75;;;;;;;18.56;46.64;102084.25;4977249;28;20110;-37
2022/09/19 11:12:13;;;;;;;12.25;1.50;;;;;;;18.61;46.01;102079.88;4977863;28;20465;-39
2022/09/19 11:14:42;;;;;;;7.82;1.13;;;;;;;18.60;45.64;102091.00;4977249;28;20097;-40
2022/09/19 11:17:30;;;;;;;16.38;2.10;;;;;;;18.67;47.04;102088.28;4976385;28;20027;-38
2022/09/19 11:20:16;;;;;;;8.32;1.40;;;;;;;19.03;47.00;102075.16;4978714;28;20033;-39
2022/09/19 11:23:13;;;;;;;5.18;1.60;;;;;;;20.19;45.58;102084.72;4971490;28;20034;-38
2022/09/19 11:26:00;;;;;;;;;;;;;;;20.60;43.25;102086.28;4978198;28;20027;-38
2022/09/19 11:28:35;;;;;;;;;;;;;;;21.18;43.39;102094.31;4977176;28;19910;-37
2022/09/19 11:31:29;;;;;;;16.73;1.77;;;;;;;21.34;41.06;102081.13;4975623;28;20038;-37
2022/09/19 11:34:16;;;;;;;10.15;1.20;;;;;;;21.48;41.46;102085.47;4975800;28;20090;-38
2022/09/19 11:37:17;;;;;;;10.15;1.77;;;;;;;21.75;40.75;102087.94;4976697;28;20057;-38
2022/09/19 11:39:51;;;;;;;8.23;1.38;;;;;;;22.38;39.71;102093.19;4944734;28;20046;-38
2022/09/19 11:42:36;;;;;;;7.40;1.80;;;;;;;22.74;39.21;102097.72;4976374;28;20035;-37
2022/09/19 11:45:15;;;;;;;10.52;1.65;;;;;;;22.61;39.25;102092.44;4976021;28;20314;-38
2022/09/19 11:47:53;;;;;;;10.98;1.88;;;;;;;22.46;38.53;102097.47;4974988;28;20356;-39
2022/09/19 11:50:20;;;;;;;;;;;;;;;22.95;36.82;102098.28;4977347;28;20498;-38
2022/09/19 11:53:03;;;;;;;9.05;1.48;;;;;;;23.04;37.55;102096.06;4976020;28;19925;-37